Time;durP1;ratioP1;P1;durP2;ratioP2;P2;SDS_P1;SDS_P2;PMS_P1;PMS_P2;Temp;Humidity;BMP_temperature;BMP_pressure;BME280_temperature;BME280_humidity;BME280_pressure;Samples;Min_cycle;Max_cycle;Signal;HPM_P1;HPM_P2
2022/05/27 00:00:49;;;;;;;7.30;4.00;;;;;;;25.19;42.03;100929.07;101364;1323;68535;-87
2022/05/27 00:03:17;;;;;;;4.90;3.60;;;;;;;25.22;42.12;100927.34;101338;1323;68471;-86
2022/05/27 00:05:42;;;;;;;7.20;3.80;;;;;;;25.24;42.08;100931.39;101396;1322;68365;-87
2022/05/27 00:08:09;;;;;;;4.00;3.60;;;;;;;25.22;41.94;100933.05;101070;1323;68353;-87
2022/05/27 00:10:39;;;;;;;4.00;3.60;;;;;;;25.21;42.09;100937.25;101030;1323;68576;-91
2022/05/27 00:13:04;;;;;;;4.10;3.70;;;;;;;25.20;42.16;100938.38;101193;1323;71847;-87
2022/05/27 00:15:30;;;;;;;4.50;3.90;;;;;;;25.24;42.21;100938.55;101108;1323;68474;-87
2022/05/27 00:17:55;;;;;;;5.30;4.10;;;;;;;25.24;42.13;100935.52;101354;1323;68440;-86
2022/05/27 00:20:22;;;;;;;4.40;4.00;;;;;;;25.24;42.13;100928.66;101104;1323;68436;-87
2022/05/27 00:22:47;;;;;;;5.00;3.80;;;;;;;25.21;42.15;100929.30;101430;1322;68501;-88
2022/05/27 00:25:13;;;;;;;4.50;3.90;;;;;;;25.19;42.18;100926.39;101393;1323;68423;-87
2022/05/27 00:27:39;;;;;;;4.60;3.90;;;;;;;25.19;42.31;100930.71;101151;1323;68423;-87
2022/05/27 00:30:05;;;;;;;6.00;3.90;;;;;;;25.22;42.33;100930.89;101457;1322;68524;-86
2022/05/27 00:32:30;;;;;;;6.40;3.80;;;;;;;25.23;42.25;100932.38;101116;1323;68467;-87
2022/05/27 00:34:56;;;;;;;5.00;4.00;;;;;;;25.22;42.29;100933.52;101108;1323;68888;-87
2022/05/27 00:37:22;;;;;;;5.00;4.00;;;;;;;25.18;42.30;100931.45;101013;1323;68457;-86
2022/05/27 00:39:47;;;;;;;4.40;4.00;;;;;;;25.17;42.37;100928.36;101174;1323;68551;-86
2022/05/27 00:42:13;;;;;;;5.70;3.80;;;;;;;25.19;42.40;100926.44;101461;1322;68555;-86
2022/05/27 00:44:38;;;;;;;5.70;3.90;;;;;;;25.21;42.40;100931.17;101466;1322;68559;-86
2022/05/27 00:47:09;;;;;;;4.60;4.10;;;;;;;25.20;42.47;100927.92;101662;1322;68812;-87
2022/05/27 00:49:46;;;;;;;6.70;3.90;;;;;;;25.18;42.43;100930.11;103018;1322;67539;-91
2022/05/27 00:52:13;;;;;;;4.20;3.70;;;;;;;25.18;42.53;100929.28;101888;1322;73958;-87
2022/05/27 00:54:40;;;;;;;4.70;3.90;;;;;;;25.19;42.58;100930.56;101440;1323;81888;-88
2022/05/27 00:57:18;;;;;;;5.00;3.90;;;;;;;25.22;42.48;100935.27;101550;1323;71609;-87
2022/05/27 00:59:53;;;;;;;5.20;4.10;;;;;;;25.24;42.61;100930.63;101276;1322;68486;-87
2022/05/27 01:02:18;;;;;;;4.30;3.90;;;;;;;25.22;42.46;100927.75;101430;1323;68286;-88
2022/05/27 01:04:44;;;;;;;5.20;4.00;;;;;;;25.19;42.50;100927.16;101465;1322;68471;-87
2022/05/27 01:07:10;;;;;;;5.20;3.80;;;;;;;25.20;42.61;100922.00;101370;1323;68417;-87
2022/05/27 01:09:36;;;;;;;5.00;4.20;;;;;;;25.21;42.50;100924.16;101226;1326;69276;-87
2022/05/27 01:12:17;;;;;;;5.50;4.20;;;;;;;25.22;42.64;100923.21;101165;1324;68414;-86
2022/05/27 01:15:02;;;;;;;5.60;4.10;;;;;;;25.22;42.63;100921.94;101474;1322;68355;-87
2022/05/27 01:17:31;;;;;;;4.70;4.10;;;;;;;25.21;42.49;100917.66;101447;1323;73524;-87
2022/05/27 01:20:18;;;;;;;5.50;4.40;;;;;;;25.21;42.52;100921.32;101508;1323;80905;-87
2022/05/27 01:22:45;;;;;;;7.90;4.10;;;;;;;25.21;42.60;100921.17;101171;1323;425603;-87
2022/05/27 01:25:36;;;;;;;4.60;3.90;;;;;;;25.20;42.56;100918.92;101265;1323;68557;-87
2022/05/27 01:31:30;;;;;;;6.30;4.30;;;;;;;25.16;42.54;100914.94;101517;1320;73994;-86
2022/05/27 01:34:29;;;;;;;5.10;4.30;;;;;;;25.09;42.53;100913.67;101482;1322;82077;-86
2022/05/27 01:37:12;;;;;;;5.40;4.10;;;;;;;25.06;42.65;100914.58;101434;1323;72003;-86
2022/05/27 01:39:37;;;;;;;5.50;4.10;;;;;;;25.04;42.86;100915.06;101573;1323;68367;-87
2022/05/27 01:42:18;;;;;;;5.00;4.10;;;;;;;25.03;42.80;100911.00;101506;1323;68458;-86
2022/05/27 01:45:07;;;;;;;5.80;4.40;;;;;;;25.09;42.80;100913.73;101576;1322;75689;-86
2022/05/27 01:47:54;;;;;;;6.60;4.00;;;;;;;25.12;42.87;100917.36;101488;1322;81001;-86
2022/05/27 01:50:42;;;;;;;4.40;4.00;;;;;;;25.12;42.73;100917.52;101610;1322;72029;-86
2022/05/27 01:53:27;;;;;;;6.60;3.90;;;;;;;25.11;42.84;100919.78;101550;1323;68479;-87
2022/05/27 01:56:07;;;;;;;6.50;3.80;;;;;;;25.11;42.87;100915.35;101597;1322;68480;-87
2022/05/27 01:58:48;;;;;;;6.00;4.00;;;;;;;25.14;42.79;100918.83;101649;1322;74620;-86
2022/05/27 02:03:56;;;;;;;4.80;4.00;;;;;;;25.13;42.62;100916.79;101778;1310;73032;-86
2022/05/27 02:06:35;;;;;;;4.10;3.70;;;;;;;25.10;42.86;100916.02;101750;1320;68329;-86
2022/05/27 02:09:09;;;;;;;6.70;3.80;;;;;;;25.12;42.97;100909.93;101924;1319;68318;-87
2022/05/27 02:11:34;;;;;;;4.40;4.00;;;;;;;25.15;42.89;100916.14;101849;1320;73911;-87
2022/05/27 02:14:24;;;;;;;4.80;3.90;;;;;;;25.15;42.91;100922.58;101483;1320;68468;-87
2022/05/27 02:16:55;;;;;;;5.90;4.00;;;;;;;25.11;42.85;100920.10;101608;1320;73140;-87
2022/05/27 02:19:25;;;;;;;4.20;3.60;;;;;;;25.09;42.83;100915.48;101576;1320;68393;-88
2022/05/27 02:21:58;;;;;;;4.40;3.80;;;;;;;25.13;43.02;100908.85;101554;1319;68463;-87
2022/05/27 02:24:36;;;;;;;4.50;3.80;;;;;;;25.15;42.98;100912.90;101569;1319;74837;-86
2022/05/27 02:27:24;;;;;;;9.00;4.10;;;;;;;25.17;42.83;100908.02;101732;1320;83278;-87
2022/05/27 02:29:51;;;;;;;4.70;3.90;;;;;;;25.14;42.73;100907.55;101976;1320;73280;-87
2022/05/27 02:32:30;;;;;;;5.60;4.10;;;;;;;25.11;42.91;100912.32;101661;1320;68338;-87
2022/05/27 02:35:10;;;;;;;4.40;4.00;;;;;;;25.12;42.67;100913.28;101828;1319;68407;-87
2022/05/27 02:37:39;;;;;;;5.10;4.10;;;;;;;25.14;42.93;100914.52;101941;1319;74571;-87
2022/05/27 02:42:54;;;;;;;4.50;4.00;;;;;;;25.14;42.85;100918.77;101805;1310;74305;-86
2022/05/27 02:45:30;;;;;;;4.30;3.90;;;;;;;25.12;42.97;100923.02;101610;1320;68352;-86
2022/05/27 02:48:24;;;;;;;4.90;4.40;;;;;;;25.12;43.19;100919.98;101773;1320;69436;-87
2022/05/27 02:51:36;;;;;;;10.70;5.60;;;;;;;25.12;42.91;100923.52;101273;1323;74193;-88
2022/05/27 02:54:23;;;;;;;6.90;4.40;;;;;;;25.09;42.90;100919.14;101792;1318;82593;-88
2022/05/27 02:56:56;;;;;;;9.20;5.20;;;;;;;25.03;43.12;100917.08;101542;1320;73161;-87
2022/05/27 02:59:21;;;;;;;5.70;4.90;;;;;;;25.00;43.13;100919.54;101540;1320;68248;-89
2022/05/27 03:01:47;;;;;;;8.00;5.80;;;;;;;24.97;43.14;100915.28;101955;1320;68442;-88
2022/05/27 03:04:17;;;;;;;9.00;6.90;;;;;;;24.97;43.38;100919.87;101711;1320;68389;-88
2022/05/27 03:10:06;;;;;;;14.30;7.40;;;;;;;24.85;43.11;100918.38;101391;1323;73173;-87
2022/05/27 03:13:04;;;;;;;18.80;7.90;;;;;;;24.80;43.25;100925.52;101343;1323;68326;-88
2022/05/27 03:15:54;;;;;;;25.80;8.40;;;;;;;24.77;43.46;100924.68;101242;1323;68484;-89
2022/05/27 03:18:39;;;;;;;21.40;7.80;;;;;;;24.72;43.69;100928.36;101658;1310;74749;-86
2022/05/27 03:21:12;;;;;;;24.50;7.60;;;;;;;24.69;44.08;100924.73;101468;1320;81955;-86
2022/05/27 03:24:05;;;;;;;12.50;7.10;;;;;;;24.63;44.24;100926.57;101239;1320;72975;-86
2022/05/27 03:27:00;;;;;;;11.80;7.00;;;;;;;24.58;44.26;100929.69;101532;1319;68329;-85
2022/05/27 03:29:43;;;;;;;10.50;7.00;;;;;;;24.52;44.45;100932.93;101504;1320;68729;-86
2022/05/27 03:32:37;;;;;;;10.80;6.60;;;;;;;24.45;44.31;100930.72;102023;1319;75611;-88
2022/05/27 03:35:09;;;;;;;9.60;6.30;;;;;;;24.36;44.74;100933.09;101693;1320;82834;-87
2022/05/27 03:37:43;;;;;;;8.10;6.50;;;;;;;24.30;44.83;100931.80;101859;1319;72876;-86
2022/05/27 03:40:12;;;;;;;13.10;6.40;;;;;;;24.28;45.17;100936.50;101708;1319;68454;-85
2022/05/27 03:42:38;;;;;;;14.90;7.20;;;;;;;24.24;45.17;100935.03;101346;1319;68557;-88
2022/05/27 03:45:07;;;;;;;9.30;6.70;;;;;;;24.20;45.30;100938.95;101522;1318;68369;-87
2022/05/27 03:47:33;;;;;;;11.30;7.10;;;;;;;24.14;45.27;100940.44;101635;1319;81658;-86
2022/05/27 03:49:58;;;;;;;12.60;6.60;;;;;;;24.08;45.24;100940.52;101479;1319;68452;-86
2022/05/27 03:52:25;;;;;;;12.00;7.20;;;;;;;24.04;45.63;100935.55;101604;1319;68645;-83
2022/05/27 03:54:58;;;;;;;11.40;7.00;;;;;;;24.05;45.60;100936.73;101384;1321;69590;-91
2022/05/27 03:57:24;;;;;;;8.40;6.30;;;;;;;24.04;45.75;100938.48;101394;1319;73901;-86
2022/05/27 03:59:50;;;;;;;11.40;6.70;;;;;;;24.04;45.72;100939.41;101420;1319;68900;-86
2022/05/27 04:02:15;;;;;;;7.30;6.00;;;;;;;24.03;45.74;100936.84;101617;1319;68281;-86
2022/05/27 04:04:41;;;;;;;16.90;6.60;;;;;;;24.07;45.79;100937.75;101543;1319;68454;-87
2022/05/27 04:07:06;;;;;;;11.00;6.40;;;;;;;24.08;45.59;100938.41;101593;1319;68433;-84
2022/05/27 04:09:36;;;;;;;11.60;6.60;;;;;;;24.08;45.80;100938.41;101263;1319;82661;-88
2022/05/27 04:12:03;;;;;;;12.40;6.90;;;;;;;24.07;45.70;100942.83;101779;1319;72705;-86
2022/05/27 04:14:29;;;;;;;8.50;6.90;;;;;;;24.03;45.73;100941.06;101773;1319;68401;-88
2022/05/27 04:17:27;;;;;;;10.10;6.80;;;;;;;24.06;45.73;100944.29;101626;1320;69299;-87
2022/05/27 04:19:41;;;;;;;9.80;6.10;;;;;;;24.02;45.82;100946.05;101818;1319;74026;-87
2022/05/27 04:22:16;;;;;;;11.60;6.20;;;;;;;23.96;45.67;100951.98;101945;1319;81928;-88
2022/05/27 04:24:51;;;;;;;12.40;6.50;;;;;;;23.95;45.78;100953.05;101588;1321;73706;-91
2022/05/27 05:11:07;;;;;;;13.80;5.80;;;;;;;23.98;45.90;100980.20;102990;1316;71396;-91
2022/05/27 05:13:44;;;;;;;13.80;6.30;;;;;;;23.99;45.86;100974.08;102247;1325;68260;-85
2022/05/27 05:33:46;;;;;;;13.40;5.40;;;;;;;24.04;45.91;100969.08;104768;1304;68902;31
2022/05/27 05:36:16;;;;;;;10.60;5.40;;;;;;;24.06;46.00;100973.48;102777;1317;73580;-87
2022/05/27 05:39:12;;;;;;;12.70;5.30;;;;;;;24.06;45.75;100973.90;102705;1319;81883;-87
2022/05/27 05:41:52;;;;;;;;;;;;;;;;;;;;;
2022/05/27 05:44:27;;;;;;;10.70;5.30;;;;;;;24.06;45.72;100983.25;102997;1319;69018;-84
2022/05/27 05:46:53;;;;;;;8.60;5.30;;;;;;;24.08;45.77;100987.15;102502;1320;69249;-86
2022/05/27 05:52:48;;;;;;;11.50;4.90;;;;;;;24.09;45.67;100994.69;103600;1319;81918;-87
2022/05/27 05:55:31;;;;;;;17.20;5.40;;;;;;;24.10;45.58;100993.66;103749;1318;72293;-87
2022/05/27 05:58:59;;;;;;;10.40;5.10;;;;;;;24.13;45.57;100998.95;103633;1319;67426;-89
2022/05/27 06:14:59;;;;;;;20.50;5.90;;;;;;;24.20;45.05;100996.45;88562;1323;68583;-88
2022/05/27 06:17:51;;;;;;;10.90;5.30;;;;;;;24.20;44.96;100997.37;103274;1319;67418;-91
2022/05/27 06:20:39;;;;;;;;;;;;;;;;;;;;;
2022/05/27 06:48:45;;;;;;;12.10;7.70;;;;;;;24.44;43.79;100999.48;89415;1309;66435;-88
2022/05/27 07:00:04;;;;;;;18.30;10.50;;;;;;;24.45;43.13;100999.48;104115;1307;68513;-93
2022/05/27 07:09:25;;;;;;;25.00;9.30;;;;;;;24.50;42.69;100998.11;103879;1317;82935;-88
2022/05/27 07:14:55;;;;;;;17.50;8.50;;;;;;;24.57;42.49;100995.80;103835;1306;69134;-91
2022/05/27 07:17:25;;;;;;;14.00;8.20;;;;;;;24.54;42.29;100993.05;103638;1318;69225;-89
2022/05/27 07:19:50;;;;;;;14.50;6.60;;;;;;;24.53;42.05;100994.66;103830;1317;73843;-89
2022/05/27 07:22:20;;;;;;;11.30;5.00;;;;;;;24.57;41.92;100991.64;103714;1317;83089;-88
2022/05/27 07:30:36;;;;;;;12.90;5.00;;;;;;;24.59;40.84;100993.06;104110;1306;68235;31
2022/05/27 07:42:19;;;;;;;19.30;9.10;;;;;;;24.74;40.54;100989.08;104261;1305;68388;-89
2022/05/27 08:21:19;;;;;;;;;;;;;;;;;;;;;
2022/05/27 08:53:33;;;;;;;10.40;5.30;;;;;;;24.91;36.70;100942.27;90854;1304;164061;-93
2022/05/27 12:20:57;;;;;;;5.90;4.40;;;;;;;25.31;33.73;100723.85;101632;1313;68081;-92
2022/05/27 12:27:24;;;;;;;5.50;4.80;;;;;;;25.37;33.83;100707.19;90762;1310;80251;-91
2022/05/27 12:30:35;;;;;;;6.00;3.20;;;;;;;25.39;33.83;100705.91;103236;1310;72369;-93
2022/05/27 18:11:39;;;;;;;6.90;5.90;;;;;;;25.72;34.96;100357.39;100796;1309;66887;31
2022/05/27 21:39:46;;;;;;;6.50;3.40;;;;;;;25.35;36.24;100326.23;103112;1310;71316;31
2022/05/27 23:40:51;;;;;;;5.70;3.40;;;;;;;25.15;37.05;100212.09;103711;1319;68376;31
